createdAt,value
2023-04-09T00:00:40.087Z,83.82
2023-04-09T00:03:08.470Z,84.05
2023-04-09T00:05:40.470Z,85.00
2023-04-09T00:08:09.006Z,85.50
2023-04-09T00:10:38.549Z,86.13
2023-04-09T00:13:06.796Z,86.91
2023-04-09T00:15:35.012Z,86.68
2023-04-09T00:18:03.302Z,87.05
2023-04-09T00:20:31.454Z,87.32
2023-04-09T00:22:59.659Z,87.51
2023-04-09T00:25:28.726Z,87.86
2023-04-09T00:27:59.038Z,87.89
2023-04-09T00:30:29.961Z,87.82
2023-04-09T00:32:58.342Z,87.27
2023-04-09T00:35:26.618Z,87.26
2023-04-09T00:37:54.990Z,87.81
2023-04-09T00:40:23.189Z,88.36
2023-04-09T00:42:51.461Z,88.25
2023-04-09T00:45:21.208Z,88.54
2023-04-09T00:47:49.579Z,89.61
2023-04-09T00:50:18.124Z,89.77
2023-04-09T00:52:47.104Z,90.38
2023-04-09T00:55:15.477Z,90.71
2023-04-09T00:57:43.763Z,90.08
2023-04-09T01:00:13.249Z,90.58
2023-04-09T01:02:44.919Z,89.38
2023-04-09T01:05:14.222Z,89.88
2023-04-09T01:07:55.880Z,90.38
2023-04-09T01:10:34.784Z,91.77
2023-04-09T01:13:10.740Z,91.90
2023-04-09T01:15:45.392Z,92.82
2023-04-09T01:18:20.304Z,93.67
2023-04-09T01:20:56.334Z,94.38
2023-04-09T01:23:35.372Z,95.58
2023-04-09T01:26:08.721Z,95.61
2023-04-09T01:28:52.495Z,95.61
2023-04-09T01:31:26.425Z,96.33
2023-04-09T01:33:55.099Z,96.35
2023-04-09T01:36:25.884Z,96.34
2023-04-09T01:38:57.289Z,96.90
2023-04-09T01:41:27.171Z,97.31
2023-04-09T01:43:57.449Z,97.11
2023-04-09T01:46:27.293Z,97.91
2023-04-09T01:48:56.936Z,97.37
2023-04-09T01:51:26.625Z,97.64
2023-04-09T01:53:54.902Z,98.00
2023-04-09T01:56:23.098Z,97.58
2023-04-09T01:58:52.750Z,97.49
2023-04-09T02:01:32.312Z,96.96
2023-04-09T02:04:04.387Z,97.29
2023-04-09T02:06:39.858Z,97.33
2023-04-09T02:09:10.619Z,98.07
2023-04-09T02:11:41.823Z,97.66
2023-04-09T02:14:12.699Z,98.41
2023-04-09T02:17:02.773Z,98.43
2023-04-09T02:19:40.368Z,98.51
2023-04-09T02:22:08.933Z,98.67
2023-04-09T02:24:37.536Z,98.30
2023-04-09T02:27:06.226Z,98.10
2023-04-09T02:29:34.467Z,98.50
2023-04-09T02:32:04.101Z,98.42
2023-04-09T02:34:32.302Z,98.55
2023-04-09T02:37:00.631Z,98.46
2023-04-09T02:39:28.874Z,98.11
2023-04-09T02:41:57.941Z,97.95
2023-04-09T02:44:28.571Z,98.16
2023-04-09T02:46:58.211Z,98.00
2023-04-09T02:49:27.917Z,98.34
2023-04-09T02:51:56.599Z,99.22
2023-04-09T02:54:24.794Z,99.33
2023-04-09T02:56:53.055Z,100.00
2023-04-09T02:59:21.332Z,99.80
2023-04-09T03:01:49.853Z,100.00
2023-04-09T03:04:18.239Z,100.00
2023-04-09T03:06:47.986Z,100.00
2023-04-09T03:09:16.214Z,100.00
2023-04-09T03:11:44.450Z,100.00
2023-04-09T03:14:12.647Z,100.00
2023-04-09T03:16:41.012Z,100.00
2023-04-09T03:19:09.376Z,100.00
2023-04-09T03:21:38.662Z,100.00
2023-04-09T03:24:08.888Z,100.00
2023-04-09T03:26:38.022Z,100.00
2023-04-09T03:29:08.514Z,100.00
2023-04-09T03:31:36.913Z,100.00
2023-04-09T03:34:05.149Z,100.00
2023-04-09T03:36:34.669Z,100.00
2023-04-09T03:39:13.106Z,100.00
2023-04-09T03:41:44.957Z,100.00
2023-04-09T03:44:16.720Z,100.00
2023-04-09T03:47:03.633Z,100.00
2023-04-09T03:49:32.012Z,100.00
2023-04-09T03:52:08.999Z,100.00
2023-04-09T03:54:43.576Z,99.83
2023-04-09T03:57:17.679Z,100.00
2023-04-09T03:59:48.522Z,100.00
2023-04-09T04:02:20.671Z,99.65
2023-04-09T04:04:58.354Z,100.00
2023-04-09T04:07:31.653Z,99.54
2023-04-09T04:10:08.911Z,99.40
2023-04-09T04:12:37.265Z,98.93
2023-04-09T04:15:10.655Z,98.91
2023-04-09T04:17:45.458Z,98.32
2023-04-09T04:20:23.050Z,98.36
2023-04-09T04:22:58.472Z,98.32
2023-04-09T04:25:29.462Z,97.97
2023-04-09T04:27:58.225Z,97.19
2023-04-09T04:30:36.402Z,97.10
2023-04-09T04:33:08.139Z,96.74
2023-04-09T04:36:07.634Z,95.55
2023-04-09T04:38:42.939Z,95.65
2023-04-09T04:41:19.698Z,94.86
2023-04-09T04:43:55.071Z,95.32
2023-04-09T04:46:26.176Z,94.80
2023-04-09T04:48:54.683Z,94.61
2023-04-09T04:51:24.187Z,93.74
2023-04-09T04:54:03.098Z,93.52
2023-04-09T04:56:33.122Z,92.35
2023-04-09T04:59:11.626Z,91.94
2023-04-09T05:01:55.037Z,91.76
2023-04-09T05:04:23.561Z,91.15
2023-04-09T05:06:52.062Z,91.41
2023-04-09T05:09:23.621Z,91.13
2023-04-09T05:12:03.770Z,90.83
2023-04-09T05:14:32.988Z,90.09
2023-04-09T05:17:01.242Z,89.94
2023-04-09T05:19:40.289Z,89.99
2023-04-09T05:22:08.744Z,88.89
2023-04-09T05:24:36.893Z,88.91
2023-04-09T05:27:06.651Z,88.42
2023-04-09T05:29:34.935Z,87.67
2023-04-09T05:32:04.596Z,87.30
2023-04-09T05:34:37.109Z,86.81
2023-04-09T05:37:06.647Z,85.77
2023-04-09T05:39:35.813Z,85.09
2023-04-09T05:42:06.727Z,84.63
2023-04-09T05:44:51.972Z,84.31
2023-04-09T05:47:22.081Z,83.55
2023-04-09T05:50:02.123Z,82.44
2023-04-09T05:52:31.649Z,81.82
2023-04-09T05:54:59.869Z,82.00
2023-04-09T05:57:42.311Z,81.97
2023-04-09T06:00:11.754Z,81.49
2023-04-09T06:02:46.153Z,81.25
2023-04-09T06:05:14.992Z,80.28
2023-04-09T06:07:43.185Z,79.73
2023-04-09T06:10:11.429Z,78.99
2023-04-09T06:12:42.009Z,78.06
2023-04-09T06:15:11.632Z,77.38
2023-04-09T06:17:39.790Z,76.81
2023-04-09T06:20:09.025Z,76.01
2023-04-09T06:22:37.261Z,76.02
2023-04-09T06:25:06.251Z,74.97
2023-04-09T06:27:34.533Z,74.23
2023-04-09T06:30:04.229Z,72.91
2023-04-09T06:32:37.614Z,72.46
2023-04-09T06:35:11.794Z,72.02
2023-04-09T06:37:39.940Z,71.12
2023-04-09T06:40:09.555Z,71.07
2023-04-09T06:42:37.820Z,70.27
2023-04-09T06:45:15.073Z,68.51
2023-04-09T06:47:43.322Z,67.47
2023-04-09T06:50:11.783Z,67.57
2023-04-09T06:52:39.998Z,66.86
2023-04-09T06:55:08.717Z,66.70
2023-04-09T06:57:37.862Z,66.01
2023-04-09T07:00:07.240Z,65.68
2023-04-09T07:02:37.484Z,65.61
2023-04-09T07:05:06.494Z,65.26
2023-04-09T07:07:34.684Z,63.62
2023-04-09T07:10:03.452Z,63.86
2023-04-09T07:12:33.567Z,63.87
2023-04-09T07:15:02.956Z,64.07
2023-04-09T07:17:33.014Z,64.03
2023-04-09T07:20:03.386Z,62.95
2023-04-09T07:22:31.921Z,62.41
2023-04-09T07:25:00.722Z,61.87
2023-04-09T07:27:29.912Z,60.81
2023-04-09T07:29:59.123Z,61.14
2023-04-09T07:32:29.179Z,60.91
2023-04-09T07:34:59.424Z,60.16
2023-04-09T07:37:29.112Z,59.76
2023-04-09T07:39:57.265Z,60.15
2023-04-09T07:42:25.692Z,59.43
2023-04-09T07:44:53.872Z,59.62
2023-04-09T07:47:23.961Z,58.99
2023-04-09T07:49:52.172Z,59.26
2023-04-09T07:52:20.494Z,59.11
2023-04-09T07:54:50.137Z,58.10
2023-04-09T07:57:18.295Z,58.17
2023-04-09T07:59:46.814Z,57.67
2023-04-09T08:02:15.768Z,58.04
2023-04-09T08:04:44.363Z,57.39
2023-04-09T08:07:12.736Z,56.86
2023-04-09T08:09:41.110Z,57.11
2023-04-09T08:12:11.117Z,56.32
2023-04-09T08:14:39.346Z,56.15
2023-04-09T08:17:07.591Z,55.67
2023-04-09T08:19:35.950Z,55.55
2023-04-09T08:22:04.522Z,55.05
2023-04-09T08:24:32.731Z,54.63
2023-04-09T08:27:01.897Z,54.53
2023-04-09T08:29:32.126Z,54.58
2023-04-09T08:32:00.426Z,54.44
2023-04-09T08:34:28.696Z,54.36
2023-04-09T08:36:57.144Z,53.48
2023-04-09T08:39:25.490Z,53.28
2023-04-09T08:41:53.786Z,51.96
2023-04-09T08:44:22.205Z,51.83
2023-04-09T08:46:52.650Z,52.08
2023-04-09T08:49:21.048Z,51.06
2023-04-09T08:51:50.440Z,51.29
2023-04-09T08:54:20.274Z,50.78
2023-04-09T08:56:48.729Z,50.82
2023-04-09T08:59:19.244Z,50.45
2023-04-09T09:01:52.872Z,50.05
2023-04-09T09:04:22.632Z,49.40
2023-04-09T09:06:50.888Z,48.94
2023-04-09T09:09:19.935Z,48.78
2023-04-09T09:11:50.385Z,49.16
2023-04-09T09:14:20.791Z,48.42
2023-04-09T09:17:08.340Z,48.36
2023-04-09T09:19:38.222Z,48.33
2023-04-09T09:22:08.943Z,48.03
2023-04-09T09:24:48.450Z,47.49
2023-04-09T09:27:36.789Z,47.62
2023-04-09T09:30:06.532Z,47.22
2023-04-09T09:32:35.138Z,47.65
2023-04-09T09:35:06.859Z,47.72
2023-04-09T09:37:35.536Z,47.24
2023-04-09T09:40:04.430Z,47.11
2023-04-09T09:42:33.192Z,47.03
2023-04-09T09:45:02.703Z,46.58
2023-04-09T09:47:32.184Z,46.41
2023-04-09T09:50:00.392Z,45.98
2023-04-09T09:52:30.982Z,45.82
2023-04-09T09:55:04.322Z,45.73
2023-04-09T09:57:35.161Z,44.78
2023-04-09T10:00:04.910Z,45.34
2023-04-09T10:02:49.304Z,44.50
2023-04-09T10:05:17.798Z,44.51
2023-04-09T10:07:49.320Z,44.98
2023-04-09T10:10:17.933Z,44.47
2023-04-09T10:12:47.256Z,44.11
2023-04-09T10:15:15.904Z,43.74
2023-04-09T10:17:44.209Z,43.21
2023-04-09T10:20:16.823Z,42.58
2023-04-09T10:22:49.517Z,44.01
2023-04-09T10:25:18.360Z,43.10
2023-04-09T10:27:49.241Z,43.22
2023-04-09T10:30:33.612Z,42.47
2023-04-09T10:33:12.305Z,41.04
2023-04-09T10:35:40.786Z,40.75
2023-04-09T10:38:11.305Z,40.35
2023-04-09T10:40:43.604Z,40.62
2023-04-09T10:43:12.878Z,41.06
2023-04-09T10:45:42.682Z,40.61
2023-04-09T10:48:15.130Z,40.70
2023-04-09T10:50:46.391Z,40.32
2023-04-09T10:53:26.545Z,39.81
2023-04-09T10:55:56.301Z,38.17
2023-04-09T10:58:24.485Z,38.28
2023-04-09T11:00:52.998Z,38.88
2023-04-09T11:03:23.836Z,39.32
2023-04-09T11:05:55.466Z,38.66
2023-04-09T11:08:25.154Z,36.80
2023-04-09T11:10:56.857Z,36.54
2023-04-09T11:13:25.777Z,35.32
2023-04-09T11:15:57.479Z,36.53
2023-04-09T11:18:27.511Z,35.93
2023-04-09T11:20:56.782Z,34.36
2023-04-09T11:23:27.093Z,34.80
2023-04-09T11:25:56.463Z,35.28
2023-04-09T11:28:25.727Z,34.28
2023-04-09T11:30:54.374Z,33.76
2023-04-09T11:33:22.651Z,34.50
2023-04-09T11:35:52.200Z,33.64
2023-04-09T11:38:20.402Z,34.04
2023-04-09T11:40:51.330Z,33.90
2023-04-09T11:43:21.182Z,34.31
2023-04-09T11:45:50.385Z,34.55
2023-04-09T11:48:19.353Z,34.63
2023-04-09T11:50:48.199Z,35.78
2023-04-09T11:53:22.059Z,35.50
2023-04-09T11:55:53.404Z,35.58
2023-04-09T11:58:24.646Z,35.31
2023-04-09T12:00:55.106Z,35.02
2023-04-09T12:03:30.877Z,35.69
2023-04-09T12:06:02.688Z,35.39
2023-04-09T12:08:31.327Z,35.37
2023-04-09T12:11:09.761Z,36.16
2023-04-09T12:13:40.145Z,35.85
2023-04-09T12:16:08.338Z,36.00
2023-04-09T12:18:38.505Z,35.62
2023-04-09T12:21:06.977Z,35.16
2023-04-09T12:23:35.308Z,35.14
2023-04-09T12:26:05.260Z,35.02
2023-04-09T12:28:33.532Z,35.04
2023-04-09T12:31:03.606Z,34.65
2023-04-09T12:33:32.336Z,34.92
2023-04-09T12:36:00.654Z,34.65
2023-04-09T12:38:28.897Z,35.29
2023-04-09T12:40:57.197Z,35.05
2023-04-09T12:43:26.766Z,34.59
2023-04-09T12:45:55.052Z,34.54
2023-04-09T12:48:23.749Z,35.28
2023-04-09T12:50:52.188Z,35.31
2023-04-09T12:53:20.536Z,35.27
2023-04-09T12:55:48.840Z,35.08
2023-04-09T12:58:17.045Z,35.34
2023-04-09T13:00:47.227Z,34.83
2023-04-09T13:03:16.931Z,35.16
2023-04-09T13:05:45.404Z,34.69
2023-04-09T13:08:13.564Z,35.07
2023-04-09T13:10:42.148Z,33.68
2023-04-09T13:13:12.709Z,33.08
2023-04-09T13:15:43.310Z,33.85
2023-04-09T13:18:13.800Z,33.46
2023-04-09T13:20:42.079Z,33.01
2023-04-09T13:23:10.231Z,32.74
2023-04-09T13:25:38.438Z,33.10
2023-04-09T13:28:06.672Z,33.01
2023-04-09T13:30:35.691Z,33.80
2023-04-09T13:33:04.015Z,33.10
2023-04-09T13:35:33.682Z,31.75
2023-04-09T13:38:02.067Z,32.64
2023-04-09T13:40:30.437Z,32.11
2023-04-09T13:42:58.654Z,32.32
2023-04-09T13:45:26.914Z,31.04
2023-04-09T13:47:55.290Z,32.48
2023-04-09T13:50:23.989Z,30.74
2023-04-09T13:52:53.834Z,30.60
2023-04-09T13:55:22.107Z,29.71
2023-04-09T13:57:50.334Z,30.68
2023-04-09T14:00:20.022Z,29.95
2023-04-09T14:02:48.430Z,29.52
2023-04-09T14:05:17.205Z,30.02
2023-04-09T14:07:45.954Z,29.62
2023-04-09T14:10:16.057Z,29.67
2023-04-09T14:12:44.276Z,29.66
2023-04-09T14:15:13.024Z,28.74
2023-04-09T14:17:42.021Z,28.52
2023-04-09T14:20:10.904Z,27.72
2023-04-09T14:22:39.576Z,27.56
2023-04-09T14:25:08.818Z,27.38
2023-04-09T14:27:39.132Z,27.14
2023-04-09T14:30:09.055Z,27.21
2023-04-09T14:32:37.626Z,26.42
2023-04-09T14:35:06.881Z,25.86
2023-04-09T14:37:35.684Z,26.31
2023-04-09T14:40:04.202Z,26.36
2023-04-09T14:42:32.861Z,26.91
2023-04-09T14:45:03.256Z,26.89
2023-04-09T14:47:31.969Z,25.99
2023-04-09T14:50:00.494Z,26.39
2023-04-09T14:52:30.581Z,26.20
2023-04-09T14:54:59.079Z,26.26
2023-04-09T14:57:27.584Z,26.32
2023-04-09T14:59:55.947Z,26.53
2023-04-09T15:02:26.291Z,26.89
2023-04-09T15:04:55.029Z,25.96
2023-04-09T15:07:25.143Z,26.21
2023-04-09T15:09:53.719Z,26.60
2023-04-09T15:12:22.349Z,26.21
2023-04-09T15:14:51.045Z,26.28
2023-04-09T15:17:19.512Z,26.14
2023-04-09T15:19:49.682Z,26.05
2023-04-09T15:22:18.370Z,26.22
2023-04-09T15:24:46.907Z,26.79
2023-04-09T15:27:16.286Z,26.74
2023-04-09T15:29:44.935Z,26.52
2023-04-09T15:32:13.762Z,26.72
2023-04-09T15:34:42.221Z,26.68
2023-04-09T15:37:12.243Z,27.14
2023-04-09T15:39:40.714Z,26.92
2023-04-09T15:42:10.722Z,27.48
2023-04-09T15:44:40.307Z,27.96
2023-04-09T15:47:09.149Z,28.53
2023-04-09T15:49:37.952Z,28.76
2023-04-09T15:52:06.641Z,29.19
2023-04-09T15:54:36.414Z,29.07
2023-04-09T15:57:05.190Z,29.12
2023-04-09T15:59:33.749Z,29.60
2023-04-09T16:02:02.202Z,29.92
2023-04-09T16:04:30.705Z,30.19
2023-04-09T16:06:59.240Z,30.49
2023-04-09T16:09:27.814Z,30.36
2023-04-09T16:11:57.533Z,30.27
2023-04-09T16:14:26.101Z,31.41
2023-04-09T16:16:54.639Z,31.28
2023-04-09T16:19:24.690Z,31.84
2023-04-09T16:21:53.365Z,31.97
2023-04-09T16:24:21.538Z,31.89
2023-04-09T16:26:49.929Z,32.12
2023-04-09T16:29:19.566Z,31.98
2023-04-09T16:31:47.759Z,32.06
2023-04-09T16:34:15.980Z,32.31
2023-04-09T16:36:44.741Z,32.58
2023-04-09T16:39:13.019Z,32.58
2023-04-09T16:41:41.345Z,32.96
2023-04-09T16:44:09.601Z,33.46
2023-04-09T16:46:39.238Z,33.64
2023-04-09T16:49:07.449Z,34.39
2023-04-09T16:51:35.849Z,34.79
2023-04-09T16:54:04.044Z,34.83
2023-04-09T16:56:32.280Z,34.64
2023-04-09T16:59:00.498Z,34.95
2023-04-09T17:01:29.074Z,34.74
2023-04-09T17:04:00.762Z,34.67
2023-04-09T17:06:29.460Z,34.75
2023-04-09T17:08:58.030Z,34.99
2023-04-09T17:11:26.591Z,35.12
2023-04-09T17:13:55.045Z,35.19
2023-04-09T17:16:23.325Z,35.34
2023-04-09T17:18:51.854Z,35.41
2023-04-09T17:21:21.670Z,35.71
2023-04-09T17:23:49.879Z,35.63
2023-04-09T17:26:18.134Z,36.06
2023-04-09T17:28:46.978Z,36.02
2023-04-09T17:31:16.289Z,37.08
2023-04-09T17:33:47.099Z,37.43
2023-04-09T17:36:15.466Z,36.93
2023-04-09T17:38:45.049Z,37.65
2023-04-09T17:41:13.347Z,37.64
2023-04-09T17:43:41.533Z,37.38
2023-04-09T17:46:09.867Z,37.93
2023-04-09T17:48:38.223Z,38.64
2023-04-09T17:51:07.402Z,38.92
2023-04-09T17:53:35.660Z,39.26
2023-04-09T17:56:05.686Z,39.34
2023-04-09T17:58:34.270Z,40.03
2023-04-09T18:01:02.560Z,38.93
2023-04-09T18:03:31.055Z,39.21
2023-04-09T18:06:00.712Z,39.60
2023-04-09T18:08:28.892Z,40.80
2023-04-09T18:11:11.433Z,40.62
2023-04-09T18:13:43.929Z,40.90
2023-04-09T18:16:13.221Z,40.85
2023-04-09T18:18:41.473Z,40.89
2023-04-09T18:21:09.685Z,41.71
2023-04-09T18:23:39.584Z,42.32
2023-04-09T18:26:07.900Z,42.18
2023-04-09T18:28:37.698Z,41.92
2023-04-09T18:31:07.453Z,42.74
2023-04-09T18:33:36.529Z,43.04
2023-04-09T18:36:05.245Z,42.46
2023-04-09T18:38:33.665Z,43.41
2023-04-09T18:41:02.840Z,43.75
2023-04-09T18:43:31.208Z,44.03
2023-04-09T18:45:59.970Z,44.01
2023-04-09T18:48:29.562Z,44.10
2023-04-09T18:50:57.773Z,44.65
2023-04-09T18:53:26.744Z,45.62
2023-04-09T18:55:54.890Z,46.02
2023-04-09T18:58:24.059Z,46.11
2023-04-09T19:00:52.226Z,46.92
2023-04-09T19:03:21.267Z,47.30
2023-04-09T19:05:52.654Z,46.89
2023-04-09T19:08:20.921Z,46.39
2023-04-09T19:10:49.171Z,46.46
2023-04-09T19:13:18.301Z,46.14
2023-04-09T19:15:46.625Z,46.08
2023-04-09T19:18:14.948Z,46.47
2023-04-09T19:20:43.220Z,47.07
2023-04-09T19:23:12.843Z,47.37
2023-04-09T19:25:41.114Z,48.16
2023-04-09T19:28:09.388Z,48.71
2023-04-09T19:30:37.555Z,49.26
2023-04-09T19:33:05.939Z,49.39
2023-04-09T19:35:35.885Z,49.63
2023-04-09T19:38:05.090Z,49.61
2023-04-09T19:40:34.889Z,49.49
2023-04-09T19:43:03.164Z,49.67
2023-04-09T19:45:31.421Z,49.99
2023-04-09T19:47:59.656Z,49.95
2023-04-09T19:50:27.949Z,50.40
2023-04-09T19:52:56.521Z,50.53
2023-04-09T19:55:25.054Z,50.55
2023-04-09T19:57:54.735Z,51.08
2023-04-09T20:00:22.952Z,51.11
2023-04-09T20:02:51.687Z,52.03
2023-04-09T20:05:21.059Z,51.73
2023-04-09T20:07:49.597Z,51.93
2023-04-09T20:10:18.443Z,52.06
2023-04-09T20:12:48.568Z,51.72
2023-04-09T20:15:20.073Z,52.16
2023-04-09T20:17:49.300Z,52.48
2023-04-09T20:20:20.022Z,53.36
2023-04-09T20:22:56.292Z,53.59
2023-04-09T20:25:25.761Z,54.02
2023-04-09T20:27:55.061Z,55.16
2023-04-09T20:30:24.688Z,56.17
2023-04-09T20:32:52.998Z,56.75
2023-04-09T20:35:21.738Z,57.34
2023-04-09T20:37:50.059Z,57.42
2023-04-09T20:40:18.249Z,58.91
2023-04-09T20:42:46.380Z,58.75
2023-04-09T20:45:14.648Z,58.79
2023-04-09T20:47:44.381Z,59.50
2023-04-09T20:50:13.043Z,60.00
2023-04-09T20:52:41.292Z,60.11
2023-04-09T20:55:10.082Z,60.09
2023-04-09T20:57:38.226Z,60.58
2023-04-09T21:00:07.998Z,61.50
2023-04-09T21:02:36.418Z,61.33
2023-04-09T21:05:19.587Z,61.11
2023-04-09T21:07:50.885Z,61.28
2023-04-09T21:10:19.306Z,61.78
2023-04-09T21:12:47.622Z,62.69
2023-04-09T21:15:16.011Z,62.05
2023-04-09T21:17:44.463Z,62.60
2023-04-09T21:20:15.164Z,61.67
2023-04-09T21:22:43.482Z,62.33
2023-04-09T21:25:13.793Z,62.83
2023-04-09T21:27:43.364Z,63.39
2023-04-09T21:30:12.107Z,63.75
2023-04-09T21:32:40.417Z,64.53
2023-04-09T21:35:09.159Z,64.50
2023-04-09T21:37:39.312Z,64.83
2023-04-09T21:40:08.884Z,66.23
2023-04-09T21:42:37.401Z,66.42
2023-04-09T21:45:06.626Z,65.93
2023-04-09T21:47:34.926Z,65.47
2023-04-09T21:50:04.085Z,66.02
2023-04-09T21:52:32.611Z,65.81
2023-04-09T21:55:02.346Z,65.30
2023-04-09T21:57:30.946Z,65.78
2023-04-09T21:59:59.889Z,65.72
2023-04-09T22:02:28.683Z,66.34
2023-04-09T22:04:57.088Z,66.31
2023-04-09T22:07:25.860Z,67.31
2023-04-09T22:09:55.425Z,67.60
2023-04-09T22:12:25.364Z,68.28
2023-04-09T22:14:53.464Z,68.44
2023-04-09T22:17:21.625Z,68.63
2023-04-09T22:19:51.121Z,68.78
2023-04-09T22:22:19.251Z,69.44
2023-04-09T22:24:47.414Z,68.99
2023-04-09T22:27:15.587Z,69.01
2023-04-09T22:29:45.084Z,69.44
2023-04-09T22:32:13.554Z,68.81
2023-04-09T22:34:41.847Z,68.98
2023-04-09T22:37:10.073Z,69.15
2023-04-09T22:39:38.220Z,69.00
2023-04-09T22:42:06.433Z,68.39
2023-04-09T22:44:34.566Z,68.54
2023-04-09T22:47:04.160Z,69.54
2023-04-09T22:49:32.340Z,69.65
2023-04-09T22:52:00.486Z,70.00
2023-04-09T22:54:30.134Z,69.80
2023-04-09T22:56:58.416Z,69.97
2023-04-09T22:59:37.191Z,69.52
2023-04-09T23:02:09.438Z,69.72
2023-04-09T23:04:37.817Z,69.78
2023-04-09T23:07:06.129Z,70.01
2023-04-09T23:09:34.442Z,70.65
2023-04-09T23:12:03.443Z,71.71
2023-04-09T23:14:31.603Z,71.97
2023-04-09T23:16:59.773Z,71.83
2023-04-09T23:19:29.334Z,72.02
2023-04-09T23:21:57.481Z,72.28
2023-04-09T23:24:25.751Z,72.50
2023-04-09T23:26:53.900Z,72.50
2023-04-09T23:29:22.060Z,72.31
2023-04-09T23:31:50.346Z,71.81
2023-04-09T23:34:18.575Z,71.54
2023-04-09T23:36:48.147Z,72.17
2023-04-09T23:39:16.259Z,72.42
2023-04-09T23:41:44.482Z,72.05
2023-04-09T23:44:12.651Z,71.96
2023-04-09T23:46:41.826Z,72.46
2023-04-09T23:49:10.025Z,72.10
2023-04-09T23:51:38.266Z,72.60
2023-04-09T23:54:07.841Z,73.30
2023-04-09T23:56:36.378Z,73.74
2023-04-09T23:59:04.534Z,72.97
